Time;durP1;ratioP1;P1;durP2;ratioP2;P2;SDS_P1;SDS_P2;PMS_P1;PMS_P2;Temp;Humidity;BMP_temperature;BMP_pressure;BME280_temperature;BME280_humidity;BME280_pressure;Samples;Min_cycle;Max_cycle;Signal;HPM_P1;HPM_P2
2021/12/25 00:02:09;;;;;;;3.00;1.23;;;12.90;99.40;;;;;;5115889;28;20019;-51
2021/12/25 00:04:35;;;;;;;2.83;1.13;;;12.90;99.20;;;;;;5115614;28;20032;-51
2021/12/25 00:07:02;;;;;;;1.80;0.95;;;12.80;99.70;;;;;;5114716;28;20389;-51
2021/12/25 00:09:28;;;;;;;2.58;1.02;;;12.80;99.90;;;;;;5115565;28;20469;-51
2021/12/25 00:11:54;;;;;;;2.42;1.23;;;12.80;99.90;;;;;;5112116;28;20035;-51
2021/12/25 00:14:22;;;;;;;1.65;1.00;;;12.70;99.90;;;;;;5095131;28;20032;-51
2021/12/25 00:16:48;;;;;;;2.80;1.27;;;12.60;99.90;;;;;;5095058;28;20110;-51
2021/12/25 00:19:14;;;;;;;3.95;2.30;;;12.60;99.90;;;;;;5108992;28;20028;-51
2021/12/25 00:21:40;;;;;;;3.28;1.40;;;12.60;99.90;;;;;;5115376;28;20049;-51
2021/12/25 00:24:07;;;;;;;6.70;2.53;;;12.50;99.90;;;;;;5106429;28;20039;-51
2021/12/25 00:26:58;;;;;;;4.88;1.75;;;12.50;99.90;;;;;;5108898;28;20052;-51
2021/12/25 00:29:48;;;;;;;5.72;1.42;;;12.50;99.90;;;;;;5076641;28;20028;-51
2021/12/25 00:34:50;;;;;;;5.82;1.75;;;12.50;99.90;;;;;;5076497;28;20028;-51
2021/12/25 00:37:17;;;;;;;3.53;1.33;;;12.60;99.90;;;;;;5076653;28;20028;-51
2021/12/25 00:39:45;;;;;;;3.17;1.45;;;12.70;99.90;;;;;;5094754;28;20453;-51
2021/12/25 00:42:12;;;;;;;17.13;6.63;;;12.70;99.90;;;;;;5094529;28;20028;-51
2021/12/25 00:44:39;;;;;;;18.45;6.40;;;12.70;99.90;;;;;;5076573;28;20040;-51
2021/12/25 00:47:06;;;;;;;5.85;1.75;;;12.60;99.90;;;;;;5094552;28;20039;-51
2021/12/25 00:49:32;;;;;;;24.13;9.25;;;12.60;99.90;;;;;;5094538;28;20393;-51
2021/12/25 00:51:58;;;;;;;16.50;6.03;;;12.60;99.90;;;;;;5094560;28;20032;-51
2021/12/25 00:54:25;;;;;;;9.23;3.47;;;12.50;99.90;;;;;;5076346;28;20134;-51
2021/12/25 00:56:51;;;;;;;12.82;4.75;;;12.50;99.90;;;;;;5094417;28;20374;-51
2021/12/25 00:59:17;;;;;;;8.35;3.10;;;12.40;99.90;;;;;;5076398;28;20024;-51
2021/12/25 01:01:44;;;;;;;2.22;0.95;;;12.40;99.90;;;;;;5093040;28;20020;-51
2021/12/25 01:04:10;;;;;;;30.55;12.25;;;12.50;99.90;;;;;;5094622;28;20529;-51
2021/12/25 01:06:37;;;;;;;2.05;1.23;;;12.50;99.90;;;;;;5076318;28;20113;-51
2021/12/25 01:09:07;;;;;;;2.47;0.90;;;12.50;99.90;;;;;;5076236;28;20038;-51
2021/12/25 01:11:35;;;;;;;4.40;1.67;;;12.60;99.90;;;;;;5075555;28;20043;-51
2021/12/25 01:14:22;;;;;;;2.97;0.90;;;12.60;99.90;;;;;;5056117;28;20029;-51
2021/12/25 01:39:47;;;;;;;4.93;2.40;;;12.50;99.90;;;;;;5015746;28;20040;-50
2021/12/25 01:47:48;;;;;;;22.08;9.05;;;12.60;99.90;;;;;;4999030;28;20088;-51
2021/12/25 01:50:19;;;;;;;27.88;13.00;;;12.40;99.90;;;;;;5015327;28;20120;-51
2021/12/25 01:52:46;;;;;;;18.73;8.55;;;12.30;99.90;;;;;;4998784;28;20034;-51
2021/12/25 01:55:19;;;;;;;19.55;8.77;;;12.20;99.90;;;;;;4998937;28;20089;-51
2021/12/25 01:57:45;;;;;;;12.45;6.70;;;12.20;99.90;;;;;;4998751;28;20026;-50
2021/12/25 02:00:19;;;;;;;10.50;4.90;;;12.10;99.90;;;;;;4998474;28;20120;-50
2021/12/25 02:02:46;;;;;;;6.75;3.53;;;12.10;99.90;;;;;;5015414;28;20329;-50
2021/12/25 02:05:13;;;;;;;7.05;3.30;;;12.10;99.90;;;;;;4998815;28;20026;-50
2021/12/25 02:07:40;;;;;;;6.75;3.28;;;12.00;99.90;;;;;;5090140;28;20032;-50
2021/12/25 02:10:07;;;;;;;6.00;2.58;;;11.90;99.90;;;;;;5097344;28;20039;-50
2021/12/25 02:12:34;;;;;;;8.23;4.30;;;11.90;99.90;;;;;;5086922;28;20043;-50
2021/12/25 02:15:07;;;;;;;6.80;3.20;;;11.80;99.90;;;;;;5059134;28;20042;-50
2021/12/25 02:20:30;;;;;;;10.52;5.70;;;11.70;99.90;;;;;;5058977;28;20070;-50
2021/12/25 02:23:03;;;;;;;6.50;3.20;;;11.70;99.90;;;;;;5077208;28;20063;-51
2021/12/25 02:25:33;;;;;;;4.38;2.70;;;11.60;99.90;;;;;;5058888;28;20390;-50
2021/12/25 02:27:59;;;;;;;7.70;3.08;;;11.40;99.90;;;;;;5074217;28;20059;-50
2021/12/25 02:30:25;;;;;;;7.95;3.33;;;11.20;99.90;;;;;;5096567;28;20054;-50
2021/12/25 02:32:53;;;;;;;11.10;3.10;;;11.20;99.90;;;;;;5078768;28;20039;-50
2021/12/25 02:35:20;;;;;;;6.25;3.22;;;11.10;99.90;;;;;;5078696;28;20028;-50
2021/12/25 02:37:46;;;;;;;6.15;2.97;;;11.00;99.90;;;;;;5078833;28;20111;-50
2021/12/25 02:40:13;;;;;;;16.45;3.60;;;10.90;99.90;;;;;;5096951;28;20553;-50
2021/12/25 02:42:39;;;;;;;10.32;5.20;;;10.80;99.90;;;;;;5096619;28;20048;-50
2021/12/25 02:45:06;;;;;;;9.75;4.70;;;10.70;99.90;;;;;;5078620;28;20131;-50
2021/12/25 02:47:36;;;;;;;16.55;7.90;;;10.60;99.90;;;;;;5078576;28;20035;-50
2021/12/25 02:50:02;;;;;;;22.85;12.43;;;10.60;99.90;;;;;;5078675;28;20092;-50
2021/12/25 02:52:29;;;;;;;21.75;11.38;;;10.40;99.90;;;;;;5096728;28;20031;-50
2021/12/25 02:54:55;;;;;;;14.57;8.13;;;10.40;99.90;;;;;;5096671;28;20024;-50
2021/12/25 02:57:21;;;;;;;17.88;8.35;;;10.20;99.90;;;;;;5095269;28;20134;-50
2021/12/25 02:59:47;;;;;;;15.50;7.13;;;10.20;99.90;;;;;;5112353;28;20077;-50
2021/12/25 03:02:15;;;;;;;17.05;7.45;;;10.10;99.90;;;;;;5112461;28;20070;-50
2021/12/25 03:04:45;;;;;;;12.43;5.60;;;10.10;99.90;;;;;;5078273;28;20501;-50
2021/12/25 03:07:12;;;;;;;17.52;6.60;;;9.90;99.90;;;;;;5078460;28;20032;-50
2021/12/25 03:09:39;;;;;;;16.98;6.50;;;9.90;99.90;;;;;;5111957;28;20397;-50
2021/12/25 03:12:08;;;;;;;20.25;10.38;;;9.80;99.90;;;;;;5072865;28;20044;-50
2021/12/25 03:14:38;;;;;;;28.65;14.05;;;9.80;99.90;;;;;;5074588;28;20591;-50
2021/12/25 03:17:05;;;;;;;39.97;19.70;;;9.80;99.90;;;;;;5075953;28;20079;-50
2021/12/25 03:19:32;;;;;;;29.90;16.60;;;9.70;99.90;;;;;;5057710;28;20032;-50
2021/12/25 03:22:04;;;;;;;23.48;11.05;;;9.70;99.90;;;;;;5075985;28;20025;-50
2021/12/25 03:24:30;;;;;;;20.10;9.65;;;9.70;99.90;;;;;;5070126;28;20028;-50
2021/12/25 03:26:57;;;;;;;35.88;17.50;;;9.70;99.90;;;;;;5095870;28;20090;-51
2021/12/25 03:29:24;;;;;;;41.80;22.55;;;9.60;99.90;;;;;;5094663;28;20119;-50
2021/12/25 03:31:51;;;;;;;33.55;18.75;;;9.50;99.90;;;;;;5077632;28;20056;-51
2021/12/25 03:34:17;;;;;;;55.17;23.98;;;9.50;99.90;;;;;;5094438;28;20055;-50
2021/12/25 03:36:43;;;;;;;42.60;20.83;;;9.40;99.90;;;;;;5094709;28;20107;-50
2021/12/25 03:39:09;;;;;;;112.75;42.80;;;9.30;99.90;;;;;;5094309;28;20037;-50
2021/12/25 03:41:36;;;;;;;123.60;45.90;;;9.30;99.90;;;;;;5077369;28;20486;-50
2021/12/25 03:44:02;;;;;;;100.78;38.95;;;9.30;99.90;;;;;;5095673;28;20031;-50
2021/12/25 03:46:29;;;;;;;101.82;40.92;;;9.30;99.90;;;;;;5094134;28;20113;-50
2021/12/25 03:59:40;;;;;;;68.57;28.58;;;9.20;99.90;;;;;;5111041;28;20024;-50
2021/12/25 04:02:15;;;;;;;81.18;33.53;;;9.10;99.90;;;;;;5095274;28;20518;-50
2021/12/25 04:04:46;;;;;;;72.10;34.08;;;9.10;99.90;;;;;;5095447;28;20112;-50
2021/12/25 04:09:41;;;;;;;59.05;29.70;;;9.00;99.90;;;;;;5093730;28;20119;-50
2021/12/25 04:12:11;;;;;;;59.55;29.27;;;9.00;99.90;;;;;;5095032;28;20047;-50
2021/12/25 04:14:39;;;;;;;58.53;27.67;;;9.00;99.90;;;;;;5110748;28;20481;-50
2021/12/25 04:17:06;;;;;;;67.75;30.90;;;9.00;99.90;;;;;;5076713;28;20024;-50
2021/12/25 04:19:34;;;;;;;71.30;32.00;;;9.00;99.90;;;;;;5093791;28;20421;-50
2021/12/25 04:22:07;;;;;;;60.97;29.58;;;9.00;99.90;;;;;;5093491;28;20082;-50
2021/12/25 04:24:39;;;;;;;52.58;26.40;;;9.00;99.90;;;;;;5096982;28;20038;-50
2021/12/25 04:27:10;;;;;;;56.15;25.38;;;8.90;99.90;;;;;;5096646;28;20040;-50
2021/12/25 04:29:43;;;;;;;60.28;29.13;;;8.80;99.90;;;;;;5115065;28;20031;-50
2021/12/25 05:03:07;;;;;;;59.63;27.27;;;8.60;99.90;;;;;;5114935;28;20035;-50
2021/12/25 05:05:40;;;;;;;62.03;28.17;;;8.60;99.90;;;;;;5096366;28;20027;-50
2021/12/25 05:08:27;;;;;;;68.63;31.52;;;8.60;99.90;;;;;;5096561;28;20108;-50
2021/12/25 05:10:54;;;;;;;80.03;33.00;;;8.60;99.90;;;;;;5096519;28;20031;-50
2021/12/25 05:13:21;;;;;;;60.45;27.52;;;8.50;99.90;;;;;;5081034;28;20040;-50
2021/12/25 05:15:47;;;;;;;67.07;30.02;;;8.50;99.90;;;;;;5076317;28;20103;-50
2021/12/25 05:18:14;;;;;;;56.70;27.90;;;8.50;99.90;;;;;;5085024;28;20032;-50
2021/12/25 05:20:40;;;;;;;59.33;26.60;;;8.50;99.90;;;;;;5092960;28;20024;-50
2021/12/25 05:23:07;;;;;;;48.30;24.27;;;8.60;99.90;;;;;;5093531;28;20524;-50
2021/12/25 05:25:34;;;;;;;52.40;26.20;;;8.50;99.90;;;;;;5114436;28;20062;-50
2021/12/25 05:28:01;;;;;;;56.13;26.52;;;8.50;99.90;;;;;;5096226;28;20390;-50
2021/12/25 05:30:29;;;;;;;59.13;29.02;;;8.60;99.90;;;;;;5114629;28;20038;-50
2021/12/25 05:33:15;;;;;;;62.78;27.48;;;8.50;99.90;;;;;;5113671;28;20077;-50
2021/12/25 05:35:59;;;;;;;66.32;29.63;;;8.50;99.90;;;;;;5114484;28;20081;-50
2021/12/25 05:38:46;;;;;;;66.38;28.48;;;8.50;99.90;;;;;;5096082;28;20034;-50
2021/12/25 05:41:26;;;;;;;60.53;26.77;;;8.40;99.90;;;;;;5114535;28;20115;-50
2021/12/25 05:43:52;;;;;;;73.00;29.23;;;8.50;99.90;;;;;;5096142;28;20023;-50
2021/12/25 05:46:38;;;;;;;88.72;37.33;;;8.50;99.90;;;;;;5095977;28;20039;-50
2021/12/25 05:49:04;;;;;;;75.53;32.22;;;8.50;99.90;;;;;;5114455;28;20039;-50
2021/12/25 05:51:43;;;;;;;65.13;28.15;;;8.50;99.90;;;;;;5114523;28;20077;-50
2021/12/25 05:54:20;;;;;;;77.60;32.15;;;8.60;99.90;;;;;;5096095;28;20042;-50
2021/12/25 05:57:06;;;;;;;76.32;31.05;;;8.50;99.90;;;;;;5113634;28;20047;-50
2021/12/25 05:59:57;;;;;;;52.65;27.38;;;8.50;99.90;;;;;;5096033;28;20023;-50
2021/12/25 06:02:43;;;;;;;61.75;27.08;;;8.50;99.90;;;;;;5114599;28;20485;-50
2021/12/25 06:05:14;;;;;;;63.55;29.40;;;8.50;99.90;;;;;;5097036;28;20542;-50
2021/12/25 06:07:40;;;;;;;77.88;36.05;;;8.40;99.90;;;;;;5099771;28;20027;-50
2021/12/25 06:10:10;;;;;;;88.25;41.35;;;8.40;99.90;;;;;;5099326;28;20110;-50
2021/12/25 06:12:43;;;;;;;91.45;42.42;;;8.50;99.90;;;;;;5090205;28;20024;-50
2021/12/25 06:15:13;;;;;;;103.93;45.13;;;8.50;99.90;;;;;;5097311;28;20081;-50
2021/12/25 06:17:59;;;;;;;137.52;56.13;;;8.60;99.90;;;;;;5096894;28;20103;-50
2021/12/25 06:20:37;;;;;;;157.68;60.08;;;8.60;99.90;;;;;;5095807;28;20109;-50
2021/12/25 06:23:14;;;;;;;80.28;39.35;;;8.60;99.90;;;;;;5097451;28;20057;-50
2021/12/25 06:26:03;;;;;;;91.45;40.78;;;8.60;99.90;;;;;;5111686;28;20032;-50
2021/12/25 06:28:56;;;;;;;96.25;42.20;;;8.60;99.90;;;;;;5115040;28;20044;-50
2021/12/25 06:31:50;;;;;;;187.15;91.18;;;8.60;99.90;;;;;;5093048;28;20040;-50
2021/12/25 06:34:39;;;;;;;267.88;116.05;;;8.70;99.90;;;;;;5108675;28;20043;-50
2021/12/25 06:37:32;;;;;;;288.30;121.85;;;8.70;99.90;;;;;;5116043;28;20118;-50
2021/12/25 06:40:11;;;;;;;193.35;88.25;;;8.80;99.90;;;;;;5099066;28;20114;-50
2021/12/25 06:42:39;;;;;;;189.30;84.47;;;8.80;99.90;;;;;;5098968;28;20043;-50
2021/12/25 06:45:06;;;;;;;166.93;74.55;;;8.80;99.90;;;;;;5098752;28;20135;-50
2021/12/25 06:47:32;;;;;;;130.90;60.28;;;8.90;99.90;;;;;;5098960;28;20051;-50
2021/12/25 06:50:03;;;;;;;134.45;58.78;;;8.90;99.90;;;;;;5098638;28;20546;-50
2021/12/25 06:52:48;;;;;;;149.30;70.78;;;8.90;99.90;;;;;;5117332;28;20034;-50
2021/12/25 06:55:40;;;;;;;169.85;73.68;;;8.80;99.90;;;;;;5114650;28;20027;-50
2021/12/25 06:58:15;;;;;;;170.75;78.32;;;8.90;99.90;;;;;;5098332;28;20034;-50
2021/12/25 07:00:41;;;;;;;160.13;73.78;;;8.80;99.90;;;;;;5098558;28;20028;-50
2021/12/25 07:03:09;;;;;;;160.63;72.85;;;8.80;99.90;;;;;;5098626;28;20035;-50
2021/12/25 07:05:53;;;;;;;141.73;66.72;;;8.90;99.90;;;;;;5116797;28;20412;-50
2021/12/25 07:08:44;;;;;;;146.25;69.75;;;8.80;99.90;;;;;;5098506;28;20500;-50
2021/12/25 07:11:20;;;;;;;155.18;74.05;;;8.90;99.90;;;;;;5116553;28;20102;-50
2021/12/25 07:14:09;;;;;;;160.30;74.40;;;8.90;99.90;;;;;;5057785;28;20104;-50
2021/12/25 07:16:47;;;;;;;193.18;87.45;;;8.90;99.90;;;;;;5076090;28;20513;-50
2021/12/25 07:19:33;;;;;;;173.23;77.57;;;9.00;99.90;;;;;;5085085;28;20039;-50
2021/12/25 07:22:26;;;;;;;168.82;76.32;;;9.00;99.90;;;;;;5093626;28;20382;-50
2021/12/25 07:25:05;;;;;;;167.10;75.72;;;9.10;99.90;;;;;;5091417;28;20031;-50
2021/12/25 07:27:54;;;;;;;191.15;91.18;;;9.00;99.90;;;;;;5111552;28;20048;-50
2021/12/25 07:30:20;;;;;;;201.93;91.70;;;9.10;99.90;;;;;;5096066;28;20043;-50
2021/12/25 07:32:46;;;;;;;204.45;91.53;;;9.20;99.90;;;;;;5095589;28;20473;-50
2021/12/25 07:35:12;;;;;;;207.10;93.03;;;9.20;99.90;;;;;;5095659;28;20084;-50
2021/12/25 07:37:38;;;;;;;202.40;84.93;;;9.20;99.90;;;;;;5095805;28;20020;-50
2021/12/25 07:40:06;;;;;;;202.30;76.47;;;9.30;99.90;;;;;;5095625;28;20390;-50
2021/12/25 07:42:32;;;;;;;163.82;75.10;;;9.40;99.90;;;;;;5095605;28;20081;-50
2021/12/25 07:45:15;;;;;;;63.30;27.85;;;9.50;99.90;;;;;;5094249;28;20131;-50
2021/12/25 07:47:48;;;;;;;117.82;55.95;;;9.60;99.90;;;;;;5095263;28;20363;-50
2021/12/25 07:50:14;;;;;;;131.32;60.85;;;9.70;99.90;;;;;;5095328;28;20028;-50
2021/12/25 07:52:41;;;;;;;126.00;58.70;;;9.80;99.90;;;;;;5095532;28;20016;-50
2021/12/25 07:55:08;;;;;;;46.80;22.90;;;9.80;99.90;;;;;;5095665;28;20115;-50
2021/12/25 07:57:34;;;;;;;26.63;14.15;;;10.00;99.90;;;;;;5095266;28;20057;-50
2021/12/25 08:00:00;;;;;;;34.65;17.08;;;10.20;99.90;;;;;;5095223;28;20027;-50
2021/12/25 08:02:26;;;;;;;41.83;19.55;;;10.40;99.90;;;;;;5095472;28;20024;-50
2021/12/25 08:04:52;;;;;;;37.33;17.40;;;10.60;99.90;;;;;;5095133;28;20481;-50
2021/12/25 08:07:18;;;;;;;23.05;12.65;;;10.80;99.90;;;;;;5095213;28;20036;-50
2021/12/25 08:09:44;;;;;;;38.20;18.05;;;10.90;99.90;;;;;;5095158;28;20074;-50
2021/12/25 08:12:10;;;;;;;11.95;5.85;;;11.40;99.90;;;;;;5094893;28;20028;-50
2021/12/25 08:14:36;;;;;;;12.77;6.05;;;11.60;99.90;;;;;;5094972;28;20035;-51
2021/12/25 08:17:04;;;;;;;26.08;11.57;;;12.00;99.90;;;;;;5094737;28;20028;-50
2021/12/25 08:19:48;;;;;;;12.82;6.25;;;12.20;99.90;;;;;;5095397;28;20610;-50
2021/12/25 08:22:33;;;;;;;9.23;3.60;;;12.30;99.90;;;;;;5095160;28;20047;-50
2021/12/25 08:25:18;;;;;;;26.95;13.77;;;12.40;99.90;;;;;;5113814;28;20079;-50
2021/12/25 08:28:03;;;;;;;23.88;10.60;;;12.60;99.90;;;;;;5114458;28;20523;-50
2021/12/25 08:30:29;;;;;;;18.75;9.38;;;12.70;99.90;;;;;;5115190;28;20084;-50
2021/12/25 08:33:14;;;;;;;28.20;11.77;;;12.80;99.90;;;;;;5114974;28;20066;-50
2021/12/25 08:36:00;;;;;;;17.33;8.23;;;12.90;99.90;;;;;;5114222;28;20028;-50
2021/12/25 08:38:26;;;;;;;26.70;10.30;;;12.90;99.90;;;;;;5114969;28;20035;-50
2021/12/25 08:40:54;;;;;;;21.10;9.02;;;13.00;99.90;;;;;;5115052;28;20031;-51
2021/12/25 08:43:24;;;;;;;21.60;8.32;;;13.10;99.90;;;;;;5114941;28;20035;-50
2021/12/25 08:46:02;;;;;;;7.82;3.33;;;13.20;99.90;;;;;;5114859;28;20027;-50
2021/12/25 08:48:29;;;;;;;17.63;8.48;;;13.30;99.90;;;;;;5114839;28;20042;-51
2021/12/25 08:50:57;;;;;;;11.82;5.97;;;13.40;99.90;;;;;;5114854;28;20118;-50
2021/12/25 08:53:26;;;;;;;11.63;5.90;;;13.40;99.90;;;;;;5114659;28;20361;-50
2021/12/25 08:55:54;;;;;;;25.45;10.45;;;13.40;99.90;;;;;;5114922;28;20019;-50
2021/12/25 08:58:21;;;;;;;20.95;9.43;;;13.40;99.90;;;;;;5114803;28;20034;-50
2021/12/25 09:00:50;;;;;;;7.63;3.03;;;13.40;99.90;;;;;;5114797;28;20023;-50
2021/12/25 09:03:16;;;;;;;24.40;11.55;;;13.50;99.90;;;;;;5114685;28;20024;-51
2021/12/25 09:05:42;;;;;;;10.38;5.30;;;13.60;99.90;;;;;;5114886;28;20032;-50
2021/12/25 09:08:08;;;;;;;6.35;2.35;;;13.70;99.90;;;;;;5114612;28;20454;-50
2021/12/25 09:10:35;;;;;;;3.60;2.35;;;13.80;99.90;;;;;;5114576;28;20024;-50
2021/12/25 09:13:01;;;;;;;4.72;2.55;;;13.90;99.90;;;;;;5101739;28;20032;-50
2021/12/25 09:15:27;;;;;;;5.85;2.17;;;14.00;99.90;;;;;;5094284;28;20036;-51
2021/12/25 09:17:53;;;;;;;4.95;2.10;;;14.00;99.90;;;;;;5093990;28;20456;-51
2021/12/25 09:20:21;;;;;;;5.43;2.42;;;14.00;99.90;;;;;;5094516;28;20036;-62
2021/12/25 09:22:48;;;;;;;3.70;2.20;;;14.10;99.90;;;;;;5094260;28;20027;-62
2021/12/25 09:25:14;;;;;;;6.75;3.35;;;14.10;99.90;;;;;;5112780;28;20030;-62
2021/12/25 09:27:41;;;;;;;7.57;2.58;;;14.10;99.90;;;;;;5114443;28;20127;-62
2021/12/25 09:30:08;;;;;;;9.23;3.55;;;14.00;99.90;;;;;;5114452;28;20027;-62
2021/12/25 09:32:34;;;;;;;5.65;2.95;;;14.00;99.90;;;;;;5114544;28;20023;-62
2021/12/25 09:35:01;;;;;;;6.57;3.30;;;13.90;99.90;;;;;;5114149;28;20035;-61
2021/12/25 09:37:29;;;;;;;6.00;3.35;;;13.90;99.90;;;;;;5114425;28;20058;-61
2021/12/25 09:39:56;;;;;;;5.70;2.72;;;13.80;99.90;;;;;;5116726;28;20088;-62
2021/12/25 09:42:24;;;;;;;8.25;3.30;;;13.80;99.90;;;;;;5118290;28;20182;-61
2021/12/25 09:44:54;;;;;;;5.95;3.30;;;13.90;99.90;;;;;;5118099;28;20106;-62
2021/12/25 09:47:20;;;;;;;3.05;2.30;;;13.90;99.90;;;;;;5118020;28;20031;-62
2021/12/25 09:49:46;;;;;;;4.05;2.33;;;13.90;99.90;;;;;;5118258;28;20024;-62
2021/12/25 09:52:13;;;;;;;5.75;3.33;;;13.80;99.90;;;;;;5118362;28;20023;-61
2021/12/25 09:54:39;;;;;;;9.13;2.60;;;13.80;99.90;;;;;;5118281;28;20161;-61
2021/12/25 09:57:05;;;;;;;4.53;2.10;;;13.80;99.90;;;;;;5118022;28;20076;-61
2021/12/25 09:59:31;;;;;;;4.35;2.42;;;13.70;99.90;;;;;;5117855;28;20024;-61
2021/12/25 10:02:00;;;;;;;3.75;1.50;;;13.70;99.90;;;;;;5118129;28;20028;-61
2021/12/25 10:04:31;;;;;;;5.63;2.97;;;13.60;99.90;;;;;;5117909;28;20031;-62
2021/12/25 10:06:58;;;;;;;4.78;2.67;;;13.70;99.90;;;;;;5118082;28;20110;-62
2021/12/25 10:09:25;;;;;;;8.07;3.55;;;13.70;99.90;;;;;;5117819;28;20569;-61
2021/12/25 10:12:08;;;;;;;4.60;2.30;;;13.70;99.90;;;;;;5114436;28;20032;-61
2021/12/25 10:14:36;;;;;;;6.55;2.70;;;13.80;99.90;;;;;;5097346;28;20047;-61
2021/12/25 10:17:21;;;;;;;6.82;3.03;;;13.80;99.90;;;;;;5097336;28;20350;-62
2021/12/25 10:20:11;;;;;;;9.50;4.00;;;13.90;99.90;;;;;;5097660;28;20024;-62
2021/12/25 10:22:59;;;;;;;8.82;3.70;;;14.00;99.90;;;;;;5099070;28;20035;-62
2021/12/25 10:25:39;;;;;;;6.75;3.85;;;14.00;99.90;;;;;;5117519;28;20110;-62
2021/12/25 10:28:08;;;;;;;6.68;2.72;;;14.00;99.90;;;;;;5117345;28;20040;-62
2021/12/25 10:30:45;;;;;;;6.05;2.50;;;14.10;99.90;;;;;;5117314;28;20020;-62
2021/12/25 10:33:27;;;;;;;5.28;2.17;;;14.10;99.90;;;;;;5117366;28;20543;-62
2021/12/25 10:35:55;;;;;;;7.28;3.42;;;14.20;99.90;;;;;;5117435;28;20043;-62
2021/12/25 10:38:24;;;;;;;3.65;2.65;;;14.20;99.90;;;;;;5117592;28;20036;-60
2021/12/25 10:41:06;;;;;;;4.93;2.08;;;14.20;99.90;;;;;;5117282;28;20077;-61
2021/12/25 10:43:35;;;;;;;3.55;1.80;;;14.30;99.90;;;;;;5117095;28;20028;-62
2021/12/25 10:46:03;;;;;;;5.30;2.13;;;14.40;99.90;;;;;;5116909;28;20032;-62
2021/12/25 10:48:30;;;;;;;5.78;2.47;;;14.40;99.90;;;;;;5116921;28;20032;-61
2021/12/25 10:50:58;;;;;;;5.30;2.70;;;14.50;99.90;;;;;;5116290;28;20407;-62
2021/12/25 10:53:26;;;;;;;6.95;2.22;;;14.50;99.90;;;;;;5116887;28;20035;-62
2021/12/25 10:55:52;;;;;;;10.48;2.65;;;14.60;99.90;;;;;;5116854;28;20035;-62
2021/12/25 10:58:22;;;;;;;9.18;2.65;;;14.60;99.80;;;;;;5116823;28;20085;-62
2021/12/25 11:00:54;;;;;;;3.45;1.60;;;14.70;99.90;;;;;;5117046;28;20032;-62
2021/12/25 11:03:34;;;;;;;6.45;2.15;;;14.80;98.40;;;;;;5117081;28;20473;-62
2021/12/25 11:06:04;;;;;;;26.25;4.93;;;15.00;98.60;;;;;;5116724;28;20035;-62
2021/12/25 11:08:31;;;;;;;13.07;2.88;;;15.10;99.90;;;;;;5116697;28;20397;-62
2021/12/25 11:11:08;;;;;;;25.40;4.00;;;15.10;99.50;;;;;;5116487;28;20384;-62
2021/12/25 11:13:49;;;;;;;3.50;1.52;;;15.10;98.30;;;;;;5099130;28;20393;-62
2021/12/25 11:16:32;;;;;;;4.82;2.15;;;15.20;97.20;;;;;;5096119;28;20032;-62
2021/12/25 11:21:35;;;;;;;22.83;3.63;;;15.20;97.30;;;;;;5096014;28;20021;-62
2021/12/25 11:24:15;;;;;;;5.85;1.70;;;15.20;97.90;;;;;;5116267;28;20039;-62
2021/12/25 11:26:44;;;;;;;17.40;3.95;;;15.20;97.20;;;;;;5116295;28;20039;-61
2021/12/25 11:29:13;;;;;;;7.32;1.42;;;15.30;98.80;;;;;;5116467;28;20044;-62
2021/12/25 11:31:40;;;;;;;6.25;1.27;;;15.10;96.80;;;;;;5116332;28;20032;-62
2021/12/25 11:34:07;;;;;;;7.70;1.80;;;15.10;97.20;;;;;;5116220;28;20023;-62
2021/12/25 11:36:38;;;;;;;8.38;1.73;;;15.10;98.40;;;;;;5116126;28;20028;-61
2021/12/25 11:39:05;;;;;;;3.60;2.05;;;15.00;98.50;;;;;;5116318;28;20036;-62
2021/12/25 11:41:32;;;;;;;7.07;2.20;;;15.10;98.50;;;;;;5115962;28;20055;-62
2021/12/25 11:44:00;;;;;;;9.88;2.10;;;15.10;98.70;;;;;;5115886;28;20038;-62
2021/12/25 11:46:40;;;;;;;6.97;2.30;;;15.10;98.90;;;;;;5116080;28;20028;-62
2021/12/25 11:49:10;;;;;;;7.32;2.58;;;15.10;99.20;;;;;;5115675;28;20032;-61
2021/12/25 11:51:39;;;;;;;6.90;2.67;;;15.10;99.90;;;;;;5115916;28;20027;-61
2021/12/25 11:54:28;;;;;;;6.50;3.38;;;15.00;99.30;;;;;;5115538;28;20031;-61
2021/12/25 11:57:45;;;;;;;6.55;2.78;;;15.10;99.90;;;;;;5115881;28;20028;-61
2021/12/25 11:59:49;;;;;;;8.30;3.53;;;15.00;99.50;;;;;;5112301;28;20512;-62
2021/12/25 12:02:41;;;;;;;6.65;3.72;;;15.00;99.90;;;;;;5114942;28;20027;-61
2021/12/25 12:05:19;;;;;;;10.48;4.03;;;15.10;99.90;;;;;;5115650;28;20035;-62
2021/12/25 12:07:57;;;;;;;9.50;4.53;;;15.10;99.90;;;;;;5115924;28;20036;-62
2021/12/25 12:10:46;;;;;;;6.45;3.17;;;15.10;99.90;;;;;;5104344;28;20036;-62
2021/12/25 12:13:33;;;;;;;4.85;2.20;;;15.00;99.90;;;;;;5098209;28;20028;-61
2021/12/25 12:16:39;;;;;;;4.32;2.90;;;15.00;99.90;;;;;;5095105;28;20062;-62
2021/12/25 12:19:39;;;;;;;3.30;1.92;;;15.00;99.90;;;;;;5072392;28;20028;-61
2021/12/25 12:26:01;;;;;;;5.00;2.90;;;15.10;99.90;;;;;;5082209;28;20039;-62
2021/12/25 12:28:09;;;;;;;10.88;5.22;;;15.10;99.90;;;;;;5074659;28;20052;-62
2021/12/25 12:30:41;;;;;;;27.40;11.40;;;15.10;99.90;;;;;;5074467;28;20359;-61
2021/12/25 12:33:17;;;;;;;8.75;3.88;;;15.10;99.70;;;;;;5074318;28;20029;-61
2021/12/25 12:35:54;;;;;;;6.18;2.70;;;15.20;98.80;;;;;;5074455;28;20024;-61
2021/12/25 12:38:47;;;;;;;10.98;3.05;;;15.10;98.30;;;;;;5074365;28;20079;-62
2021/12/25 12:41:34;;;;;;;4.80;2.80;;;15.20;99.10;;;;;;5074384;28;20459;-62
2021/12/25 12:44:10;;;;;;;3.80;2.05;;;15.20;98.60;;;;;;5074113;28;20089;-62
2021/12/25 12:46:48;;;;;;;5.28;2.45;;;15.20;98.40;;;;;;5074541;28;20020;-61
2021/12/25 12:49:27;;;;;;;2.50;1.10;;;15.20;98.30;;;;;;5074260;28;20163;-62
2021/12/25 12:52:18;;;;;;;5.18;1.73;;;15.20;97.10;;;;;;5094651;28;20071;-62
2021/12/25 12:54:49;;;;;;;;;;;15.20;97.40;;;;;;5094900;28;20479;-61
2021/12/25 12:57:22;;;;;;;7.60;1.75;;;15.20;97.30;;;;;;5094756;28;19951;-62
2021/12/25 12:59:56;;;;;;;7.43;1.70;;;15.20;97.60;;;;;;5094319;28;20075;-62
2021/12/25 13:02:25;;;;;;;8.05;1.55;;;15.20;97.80;;;;;;5094203;28;20487;-62
2021/12/25 13:04:56;;;;;;;9.05;1.63;;;15.20;97.10;;;;;;5094326;28;20032;-62
2021/12/25 13:07:24;;;;;;;5.95;1.17;;;15.30;97.60;;;;;;5094407;28;20032;-62
2021/12/25 13:10:19;;;;;;;9.85;2.17;;;15.30;96.50;;;;;;5094227;28;20038;-62
2021/12/25 13:12:48;;;;;;;6.70;1.67;;;15.40;97.30;;;;;;5094174;28;20055;-62
2021/12/25 13:15:18;;;;;;;11.48;2.67;;;15.40;96.30;;;;;;5096991;28;20062;-62
2021/12/25 13:17:54;;;;;;;6.18;1.90;;;15.40;97.10;;;;;;5098599;28;20016;-62
2021/12/25 13:20:48;;;;;;;7.90;0.90;;;15.40;96.40;;;;;;5098435;28;20063;-62
2021/12/25 13:23:27;;;;;;;4.63;1.33;;;15.40;96.20;;;;;;5090780;28;20047;-62
2021/12/25 13:26:01;;;;;;;5.97;1.50;;;15.50;95.50;;;;;;5098313;28;20032;-62
2021/12/25 13:28:31;;;;;;;7.07;1.85;;;15.50;96.10;;;;;;5098125;28;20048;-61
2021/12/25 13:31:00;;;;;;;14.88;2.75;;;15.40;96.10;;;;;;5098346;28;20494;-62
2021/12/25 13:33:30;;;;;;;9.98;1.23;;;15.40;96.40;;;;;;5098138;28;20115;-62
2021/12/25 13:36:02;;;;;;;11.60;2.30;;;15.40;95.80;;;;;;5098138;28;20031;-62
2021/12/25 13:38:41;;;;;;;2.85;1.05;;;15.50;95.90;;;;;;5098168;28;20031;-61
2021/12/25 13:41:07;;;;;;;9.80;2.30;;;15.50;95.60;;;;;;5098109;28;20032;-61
2021/12/25 13:43:33;;;;;;;12.10;2.25;;;15.50;96.80;;;;;;5097734;28;20377;-62
2021/12/25 13:45:59;;;;;;;9.98;1.90;;;15.50;96.00;;;;;;5098217;28;20039;-62
2021/12/25 13:48:25;;;;;;;9.57;1.80;;;15.50;96.10;;;;;;5097956;28;20162;-62
2021/12/25 13:50:59;;;;;;;8.23;1.83;;;15.50;96.30;;;;;;5097770;28;20401;-62
2021/12/25 13:53:28;;;;;;;11.27;2.70;;;15.50;96.40;;;;;;5097870;28;20494;-62
2021/12/25 13:55:54;;;;;;;9.90;2.20;;;15.50;95.90;;;;;;5097810;28;20497;-62
2021/12/25 13:58:21;;;;;;;3.50;1.42;;;15.50;95.60;;;;;;5097395;28;20028;-62
2021/12/25 14:00:50;;;;;;;4.38;1.70;;;15.50;95.20;;;;;;5097599;28;20416;-62
2021/12/25 14:03:23;;;;;;;13.27;2.40;;;15.40;95.90;;;;;;5097675;28;20034;-62
2021/12/25 14:05:51;;;;;;;2.92;1.52;;;15.40;95.90;;;;;;5097472;28;20084;-62
2021/12/25 14:08:25;;;;;;;5.25;1.52;;;15.40;95.70;;;;;;5097599;28;20020;-61
2021/12/25 14:10:59;;;;;;;9.45;2.22;;;15.40;95.90;;;;;;5097401;28;20039;-62
2021/12/25 14:13:26;;;;;;;7.93;2.58;;;15.30;95.80;;;;;;5096740;28;20090;-62
2021/12/25 14:15:55;;;;;;;12.63;1.73;;;15.30;96.10;;;;;;5097453;28;20025;-61
2021/12/25 14:18:27;;;;;;;9.45;1.90;;;15.30;95.50;;;;;;5110503;28;20027;-62
2021/12/25 14:20:53;;;;;;;16.58;3.50;;;15.20;95.70;;;;;;5099371;28;20059;-62
2021/12/25 14:23:21;;;;;;;17.88;4.38;;;15.20;96.70;;;;;;5117546;28;20051;-62
2021/12/25 14:25:55;;;;;;;6.28;2.03;;;15.10;96.60;;;;;;5116331;27;20032;-62
2021/12/25 14:28:24;;;;;;;10.15;2.30;;;15.10;96.30;;;;;;5116920;28;20409;-62
2021/12/25 14:31:07;;;;;;;9.48;2.58;;;15.10;96.50;;;;;;5117536;28;20481;-62